Springboro, Ohio
Current Conditions -  °F | °C
As of 8:53 AM on Tuesday 27 Jan 2015 (Local Time) from KMGY Reporting Station
Clear Clear  
Wind Chill:   Ceiling: Unl
Heat Index: 16°   Visibility: 9mi
Dew Point: 11°   Wind: 6mph
Humidity: 81%   Direction: 50°NE
Pressure: 30.03"   Gusts: NA
Location:  39.56°N, 84.23°W
Report Text: KMGY 271353Z AUTO 05005KT 9SM CLR M09/M12 A3003 RMK AO2 SLP185 T10891117
Loading
Personal Weather Stations






























Interactive Weather Map New forecast layout! Learn more

10-Day Weather Forecast

Advertisements
Track Severe Weather on mobile